createdAt,value
2022-08-26T00:02:07.256Z,24.88
2022-08-26T00:04:35.803Z,24.89
2022-08-26T00:07:03.861Z,24.91
2022-08-26T00:09:38.920Z,24.85
2022-08-26T00:12:12.261Z,24.69
2022-08-26T00:14:41.253Z,24.66
2022-08-26T00:17:09.550Z,24.64
2022-08-26T00:19:37.968Z,24.60
2022-08-26T00:22:05.938Z,24.64
2022-08-26T00:24:33.842Z,24.69
2022-08-26T00:27:01.905Z,24.64
2022-08-26T00:29:34.939Z,24.60
2022-08-26T00:32:06.489Z,24.59
2022-08-26T00:34:35.702Z,24.61
2022-08-26T00:37:03.641Z,24.50
2022-08-26T00:39:36.807Z,24.48
2022-08-26T00:42:04.779Z,24.41
2022-08-26T00:44:33.958Z,24.48
2022-08-26T00:47:06.755Z,24.47
2022-08-26T00:49:38.194Z,24.47
2022-08-26T00:52:11.904Z,24.49
2022-08-26T00:54:47.023Z,24.51
2022-08-26T00:57:17.916Z,24.53
2022-08-26T00:59:50.018Z,24.50
2022-08-26T01:02:21.202Z,24.42
2022-08-26T01:04:55.445Z,24.46
2022-08-26T01:07:26.291Z,24.49
2022-08-26T01:09:55.886Z,24.52
2022-08-26T01:12:25.161Z,24.51
2022-08-26T01:14:56.422Z,24.46
2022-08-26T01:17:24.298Z,24.50
2022-08-26T01:19:57.558Z,24.44
2022-08-26T01:22:31.561Z,24.43
2022-08-26T01:25:03.601Z,24.47
2022-08-26T01:27:33.569Z,24.50
2022-08-26T01:30:03.757Z,24.48
2022-08-26T01:32:34.086Z,24.50
2022-08-26T01:35:02.588Z,24.51
2022-08-26T01:37:35.705Z,24.55
2022-08-26T01:40:10.390Z,24.56
2022-08-26T01:42:38.512Z,24.58
2022-08-26T01:45:11.173Z,24.54
2022-08-26T01:47:40.267Z,24.57
2022-08-26T01:50:18.092Z,24.57
2022-08-26T01:52:59.055Z,24.59
2022-08-26T01:55:32.919Z,24.63
2022-08-26T01:58:06.143Z,24.64
2022-08-26T02:00:35.942Z,24.63
2022-08-26T02:03:18.291Z,24.60
2022-08-26T02:05:48.784Z,24.57
2022-08-26T02:08:24.680Z,24.57
2022-08-26T02:10:54.768Z,24.57
2022-08-26T02:13:24.571Z,24.58
2022-08-26T02:15:53.901Z,24.48
2022-08-26T02:18:22.869Z,24.50
2022-08-26T02:20:51.675Z,24.49
2022-08-26T02:23:19.961Z,24.48
2022-08-26T02:25:54.798Z,24.40
2022-08-26T02:28:26.593Z,24.31
2022-08-26T02:30:55.733Z,24.27
2022-08-26T02:33:23.766Z,24.27
2022-08-26T02:35:52.277Z,24.23
2022-08-26T02:38:20.351Z,24.22
2022-08-26T02:40:48.278Z,24.24
2022-08-26T02:43:16.972Z,24.26
2022-08-26T02:45:47.485Z,24.22
2022-08-26T02:48:18.852Z,24.21
2022-08-26T02:50:47.892Z,24.16
2022-08-26T02:53:16.739Z,24.20
2022-08-26T02:55:52.607Z,24.15
2022-08-26T02:58:20.617Z,24.13
2022-08-26T03:00:53.512Z,24.14
2022-08-26T03:03:23.542Z,24.11
2022-08-26T03:05:51.851Z,24.08
2022-08-26T03:08:20.165Z,24.06
2022-08-26T03:10:48.528Z,24.07
2022-08-26T03:13:18.131Z,24.09
2022-08-26T03:15:47.623Z,24.07
2022-08-26T03:18:17.131Z,24.03
2022-08-26T03:20:45.732Z,24.00
2022-08-26T03:23:13.577Z,24.00
2022-08-26T03:25:41.385Z,24.02
2022-08-26T03:28:09.695Z,24.02
2022-08-26T03:30:45.276Z,24.02
2022-08-26T03:33:16.325Z,23.95
2022-08-26T03:35:47.776Z,23.91
2022-08-26T03:38:19.354Z,23.87
2022-08-26T03:40:47.505Z,23.85
2022-08-26T03:43:17.085Z,23.83
2022-08-26T03:45:45.978Z,23.78
2022-08-26T03:48:13.931Z,23.80
2022-08-26T03:50:43.620Z,23.74
2022-08-26T03:53:13.083Z,23.75
2022-08-26T03:55:42.009Z,23.76
2022-08-26T03:58:11.444Z,23.74
2022-08-26T04:00:39.653Z,23.75
2022-08-26T04:03:09.696Z,23.77
2022-08-26T04:05:37.924Z,23.74
2022-08-26T04:08:08.249Z,23.78
2022-08-26T04:10:38.797Z,23.81
2022-08-26T04:13:06.879Z,23.77
2022-08-26T04:15:34.777Z,23.79
2022-08-26T04:18:02.909Z,23.76
2022-08-26T04:20:31.923Z,23.69
2022-08-26T04:22:59.797Z,23.73
2022-08-26T04:25:29.325Z,23.73
2022-08-26T04:27:57.399Z,23.78
2022-08-26T04:30:25.275Z,23.76
2022-08-26T04:32:53.463Z,23.78
2022-08-26T04:35:25.811Z,23.75
2022-08-26T04:37:54.681Z,23.77
2022-08-26T04:40:22.603Z,23.78
2022-08-26T04:42:51.849Z,23.74
2022-08-26T04:45:22.662Z,23.76
2022-08-26T04:47:54.662Z,23.78
2022-08-26T04:50:23.856Z,23.78
2022-08-26T04:52:52.864Z,23.75
2022-08-26T04:55:20.727Z,23.77
2022-08-26T04:57:55.097Z,23.77
2022-08-26T05:00:23.156Z,23.74
2022-08-26T05:02:51.519Z,23.72
2022-08-26T05:05:19.461Z,23.71
2022-08-26T05:07:48.613Z,23.70
2022-08-26T05:10:18.255Z,23.67
2022-08-26T05:12:46.421Z,23.67
2022-08-26T05:15:15.613Z,23.63
2022-08-26T05:17:45.077Z,23.64
2022-08-26T05:20:14.420Z,23.60
2022-08-26T05:22:42.906Z,23.63
2022-08-26T05:25:11.381Z,23.63
2022-08-26T05:27:39.180Z,23.62
2022-08-26T05:30:08.338Z,23.62
2022-08-26T05:32:38.256Z,23.61
2022-08-26T05:35:08.871Z,23.60
2022-08-26T05:37:39.151Z,23.62
2022-08-26T05:40:08.547Z,23.57
2022-08-26T05:42:38.249Z,23.59
2022-08-26T05:45:07.474Z,23.55
2022-08-26T05:47:35.529Z,23.53
2022-08-26T05:50:06.017Z,23.53
2022-08-26T05:52:34.509Z,23.47
2022-08-26T05:55:02.667Z,23.48
2022-08-26T05:57:31.311Z,23.49
2022-08-26T05:59:59.327Z,23.50
2022-08-26T06:02:27.604Z,23.48
2022-08-26T06:04:55.489Z,23.41
2022-08-26T06:07:44.848Z,23.45
2022-08-26T06:10:32.622Z,23.44
2022-08-26T06:13:09.129Z,23.39
2022-08-26T06:15:42.545Z,23.41
2022-08-26T06:18:14.034Z,23.37
2022-08-26T06:20:57.599Z,23.27
2022-08-26T06:23:46.575Z,23.36
2022-08-26T06:26:15.639Z,23.34
2022-08-26T06:28:45.500Z,23.39
2022-08-26T06:31:14.670Z,23.40
2022-08-26T06:33:43.831Z,23.36
2022-08-26T06:36:18.643Z,23.43
2022-08-26T06:38:48.851Z,23.45
2022-08-26T06:41:18.045Z,23.49
2022-08-26T06:43:46.037Z,23.52
2022-08-26T06:46:16.512Z,23.58
2022-08-26T06:48:45.484Z,23.56
2022-08-26T06:51:15.794Z,23.63
2022-08-26T06:53:46.997Z,23.66
2022-08-26T06:56:20.227Z,23.66
2022-08-26T06:58:49.210Z,23.70
2022-08-26T07:01:19.647Z,23.65
2022-08-26T07:03:49.248Z,23.68
2022-08-26T07:06:19.598Z,23.71
2022-08-26T07:08:47.955Z,23.73
2022-08-26T07:11:19.282Z,23.69
2022-08-26T07:13:47.716Z,23.72
2022-08-26T07:16:17.844Z,23.70
2022-08-26T07:18:48.394Z,23.59
2022-08-26T07:21:18.398Z,23.62
2022-08-26T07:23:46.666Z,23.63
2022-08-26T07:26:17.429Z,23.59
2022-08-26T07:28:48.931Z,23.64
2022-08-26T07:31:18.349Z,23.57
2022-08-26T07:33:46.939Z,23.47
2022-08-26T07:36:16.212Z,23.53
2022-08-26T07:38:45.370Z,23.54
2022-08-26T07:41:14.383Z,23.48
2022-08-26T07:43:42.552Z,23.57
2022-08-26T07:46:18.531Z,23.61
2022-08-26T07:48:50.051Z,23.67
2022-08-26T07:51:19.796Z,23.69
2022-08-26T07:53:52.294Z,23.73
2022-08-26T07:56:21.720Z,23.76
2022-08-26T07:58:51.629Z,23.76
2022-08-26T08:01:22.038Z,23.78
2022-08-26T08:03:51.778Z,23.76
2022-08-26T08:06:20.808Z,23.70
2022-08-26T08:08:51.675Z,23.72
2022-08-26T08:11:21.297Z,23.76
2022-08-26T08:13:56.094Z,23.75
2022-08-26T08:16:27.089Z,23.62
2022-08-26T08:18:56.961Z,23.59
2022-08-26T08:21:28.961Z,23.63
2022-08-26T08:23:58.732Z,23.58
2022-08-26T08:26:28.412Z,23.61
2022-08-26T08:28:58.566Z,23.60
2022-08-26T08:31:55.995Z,23.70
2022-08-26T08:34:19.516Z,23.71
2022-08-26T08:36:50.460Z,23.70
2022-08-26T08:39:21.982Z,23.74
2022-08-26T08:42:00.938Z,23.73
2022-08-26T08:44:31.293Z,23.78
2022-08-26T08:47:06.920Z,23.75
2022-08-26T08:49:35.743Z,23.67
2022-08-26T08:52:11.410Z,23.65
2022-08-26T08:54:39.712Z,23.60
2022-08-26T08:57:13.960Z,23.64
2022-08-26T08:59:53.460Z,23.64
2022-08-26T09:02:31.994Z,23.64
2022-08-26T09:05:09.345Z,23.62
2022-08-26T09:07:47.290Z,23.66
2022-08-26T09:10:35.328Z,23.64
2022-08-26T09:13:07.981Z,23.64
2022-08-26T09:15:46.566Z,23.70
2022-08-26T09:18:28.984Z,23.71
2022-08-26T09:21:00.403Z,23.77
2022-08-26T09:23:28.664Z,23.81
2022-08-26T09:25:58.903Z,23.87
2022-08-26T09:28:29.653Z,23.89
2022-08-26T09:31:09.218Z,23.96
2022-08-26T09:33:41.995Z,23.96
2022-08-26T09:36:22.750Z,24.03
2022-08-26T09:38:54.791Z,24.03
2022-08-26T09:41:27.497Z,23.99
2022-08-26T09:44:16.112Z,23.94
2022-08-26T09:46:52.369Z,23.92
2022-08-26T09:49:35.987Z,23.85
2022-08-26T09:52:26.734Z,23.86
2022-08-26T09:55:13.057Z,23.88
2022-08-26T09:57:48.572Z,23.92
2022-08-26T10:00:30.495Z,24.00
2022-08-26T10:03:00.310Z,23.99
2022-08-26T10:05:36.029Z,24.04
2022-08-26T10:08:18.661Z,24.06
2022-08-26T10:10:47.383Z,24.00
2022-08-26T10:13:25.180Z,23.98
2022-08-26T10:16:02.028Z,23.98
2022-08-26T10:18:33.891Z,23.92
2022-08-26T10:21:11.349Z,23.98
2022-08-26T10:23:43.882Z,23.94
2022-08-26T10:26:17.654Z,24.01
2022-08-26T10:28:52.465Z,24.01
2022-08-26T10:31:27.415Z,24.06
2022-08-26T10:34:00.102Z,23.97
2022-08-26T10:37:15.065Z,23.93
2022-08-26T10:39:48.131Z,23.97
2022-08-26T10:42:25.718Z,24.04
2022-08-26T10:45:03.982Z,24.10
2022-08-26T10:47:39.346Z,24.10
2022-08-26T10:50:08.629Z,24.12
2022-08-26T10:52:52.657Z,24.15
2022-08-26T10:55:28.641Z,24.16
2022-08-26T10:58:04.956Z,24.23
2022-08-26T11:00:55.304Z,24.27
2022-08-26T11:03:36.408Z,24.32
2022-08-26T11:06:23.567Z,24.21
2022-08-26T11:08:55.494Z,24.21
2022-08-26T11:11:50.991Z,24.32
2022-08-26T11:14:53.454Z,24.31
2022-08-26T11:17:57.956Z,24.31
2022-08-26T11:20:35.715Z,24.32
2022-08-26T11:23:42.023Z,24.36
2022-08-26T11:26:36.332Z,24.40
2022-08-26T11:29:12.834Z,24.45
2022-08-26T11:31:56.855Z,24.33
2022-08-26T11:34:54.161Z,24.48
2022-08-26T11:37:26.200Z,24.50
2022-08-26T11:39:56.937Z,24.43
2022-08-26T11:42:34.581Z,24.48
2022-08-26T11:45:14.484Z,24.51
2022-08-26T11:47:42.968Z,24.49
2022-08-26T11:50:14.098Z,24.47
2022-08-26T11:52:42.629Z,24.58
2022-08-26T11:55:14.959Z,24.63
2022-08-26T11:57:47.138Z,24.72
2022-08-26T12:00:22.326Z,24.70
2022-08-26T12:02:52.393Z,24.70
2022-08-26T12:05:25.492Z,24.75
2022-08-26T12:07:58.313Z,24.79
2022-08-26T12:10:30.337Z,24.78
2022-08-26T12:13:02.045Z,24.72
2022-08-26T12:15:32.647Z,24.78
2022-08-26T12:18:28.579Z,24.84
2022-08-26T12:21:01.617Z,24.79
2022-08-26T12:23:41.326Z,24.83
2022-08-26T12:26:13.843Z,24.90
2022-08-26T12:28:48.637Z,25.00
2022-08-26T12:31:24.192Z,24.98
2022-08-26T12:33:54.757Z,25.09
2022-08-26T12:36:31.754Z,25.22
2022-08-26T12:39:08.483Z,25.21
2022-08-26T12:41:47.781Z,25.21
2022-08-26T12:44:38.357Z,25.23
2022-08-26T12:47:12.373Z,25.22
2022-08-26T12:49:42.448Z,25.12
2022-08-26T12:52:30.068Z,25.20
2022-08-26T12:55:00.381Z,25.23
2022-08-26T12:57:32.239Z,25.25
2022-08-26T13:00:29.959Z,25.34
2022-08-26T13:02:58.913Z,25.40
2022-08-26T13:05:33.058Z,25.51
2022-08-26T13:08:13.706Z,25.49
2022-08-26T13:10:44.368Z,25.55
2022-08-26T13:13:12.567Z,25.65
2022-08-26T13:15:42.134Z,25.75
2022-08-26T13:18:10.257Z,25.76
2022-08-26T13:20:44.161Z,25.69
2022-08-26T13:23:12.529Z,25.62
2022-08-26T13:25:41.248Z,25.71
2022-08-26T13:28:09.395Z,25.57
2022-08-26T13:30:37.581Z,25.54
2022-08-26T13:33:08.255Z,25.46
2022-08-26T13:35:37.275Z,25.43
2022-08-26T13:38:08.889Z,25.51
2022-08-26T13:40:37.473Z,25.45
2022-08-26T13:43:05.645Z,25.41
2022-08-26T13:45:33.704Z,25.45
2022-08-26T13:48:01.604Z,25.38
2022-08-26T13:50:30.895Z,25.20
2022-08-26T13:52:58.755Z,25.35
2022-08-26T13:55:27.730Z,25.36
2022-08-26T13:57:56.230Z,25.43
2022-08-26T14:00:24.273Z,25.44
2022-08-26T14:02:52.399Z,25.51
2022-08-26T14:05:20.427Z,25.50
2022-08-26T14:07:49.645Z,25.60
2022-08-26T14:10:17.539Z,25.44
2022-08-26T14:12:45.808Z,25.52
2022-08-26T14:15:16.274Z,25.47
2022-08-26T14:17:44.256Z,25.42
2022-08-26T14:20:15.579Z,25.41
2022-08-26T14:23:03.484Z,25.47
2022-08-26T14:25:34.849Z,25.53
2022-08-26T14:28:02.770Z,25.55
2022-08-26T14:30:30.716Z,25.55
2022-08-26T14:33:00.379Z,25.51
2022-08-26T14:35:30.838Z,25.47
2022-08-26T14:37:58.836Z,25.52
2022-08-26T14:40:31.195Z,25.54
2022-08-26T14:43:03.580Z,25.65
2022-08-26T14:45:32.094Z,25.74
2022-08-26T14:48:00.118Z,25.73
2022-08-26T14:50:27.983Z,25.65
2022-08-26T14:53:13.229Z,25.66
2022-08-26T14:55:43.328Z,25.71
2022-08-26T14:58:13.061Z,25.74
2022-08-26T15:00:40.897Z,25.75
2022-08-26T15:03:09.137Z,25.77
2022-08-26T15:05:37.061Z,25.72
2022-08-26T15:08:10.673Z,25.70
2022-08-26T15:10:38.948Z,25.65
2022-08-26T15:13:06.944Z,25.69
2022-08-26T15:15:37.634Z,25.54
2022-08-26T15:18:05.974Z,25.52
2022-08-26T15:20:34.279Z,25.51
2022-08-26T15:23:05.958Z,25.60
2022-08-26T15:25:34.332Z,25.61
2022-08-26T15:28:02.360Z,25.70
2022-08-26T15:30:30.215Z,25.65
2022-08-26T15:32:59.728Z,25.53
2022-08-26T15:35:27.940Z,25.52
2022-08-26T15:38:00.902Z,25.54
2022-08-26T15:40:29.187Z,25.59
2022-08-26T15:43:11.367Z,25.60
2022-08-26T15:45:45.180Z,25.66
2022-08-26T15:48:14.628Z,25.68
2022-08-26T15:50:51.532Z,25.71
2022-08-26T15:53:20.101Z,25.73
2022-08-26T15:55:48.657Z,25.83
2022-08-26T15:58:18.402Z,25.91
2022-08-26T16:00:46.293Z,25.93
2022-08-26T16:03:15.487Z,25.94
2022-08-26T16:05:44.587Z,25.90
2022-08-26T16:08:14.192Z,25.96
2022-08-26T16:10:49.948Z,25.81
2022-08-26T16:13:20.113Z,25.91
2022-08-26T16:15:48.893Z,25.95
2022-08-26T16:18:20.259Z,25.90
2022-08-26T16:21:06.520Z,25.87
2022-08-26T16:23:45.170Z,25.82
2022-08-26T16:26:15.547Z,25.80
2022-08-26T16:28:44.100Z,25.78
2022-08-26T16:31:12.317Z,25.82
2022-08-26T16:33:41.749Z,25.79
2022-08-26T16:36:10.701Z,25.69
2022-08-26T16:38:39.478Z,25.71
2022-08-26T16:41:08.725Z,25.74
2022-08-26T16:43:37.023Z,25.73
2022-08-26T16:46:06.764Z,25.61
2022-08-26T16:48:35.081Z,25.56
2022-08-26T16:51:04.462Z,25.55
2022-08-26T16:53:33.560Z,25.57
2022-08-26T16:56:01.768Z,25.54
2022-08-26T16:58:29.998Z,25.52
2022-08-26T17:00:58.181Z,25.37
2022-08-26T17:03:26.049Z,25.39
2022-08-26T17:05:54.336Z,25.41
2022-08-26T17:08:28.445Z,25.41
2022-08-26T17:10:56.903Z,25.41
2022-08-26T17:13:35.307Z,25.47
2022-08-26T17:16:05.360Z,25.49
2022-08-26T17:18:34.623Z,25.55
2022-08-26T17:21:03.773Z,25.58
2022-08-26T17:23:33.325Z,25.65
2022-08-26T17:26:01.158Z,25.60
2022-08-26T17:28:28.946Z,25.56
2022-08-26T17:30:57.863Z,25.58
2022-08-26T17:33:26.075Z,25.52
2022-08-26T17:35:54.110Z,25.54
2022-08-26T17:38:22.286Z,25.57
2022-08-26T17:40:52.226Z,25.59
2022-08-26T17:43:20.412Z,25.43
2022-08-26T17:45:48.582Z,25.40
2022-08-26T17:48:17.229Z,25.44
2022-08-26T17:50:47.077Z,25.38
2022-08-26T17:53:18.689Z,25.35
2022-08-26T17:55:47.723Z,25.32
2022-08-26T17:58:19.049Z,25.30
2022-08-26T18:00:49.285Z,25.24
2022-08-26T18:03:18.424Z,25.27
2022-08-26T18:05:49.314Z,25.11
2022-08-26T18:08:17.131Z,25.13
2022-08-26T18:10:45.759Z,25.11
2022-08-26T18:13:14.802Z,25.01
2022-08-26T18:15:45.738Z,25.02
2022-08-26T18:18:14.357Z,24.96
2022-08-26T18:20:43.741Z,24.96
2022-08-26T18:23:12.047Z,24.82
2022-08-26T18:25:41.548Z,24.88
2022-08-26T18:28:09.792Z,24.85
2022-08-26T18:30:37.633Z,24.74
2022-08-26T18:33:06.887Z,24.75
2022-08-26T18:35:39.742Z,24.72
2022-08-26T18:38:11.844Z,24.76
2022-08-26T18:40:41.199Z,24.77
2022-08-26T18:43:09.418Z,24.76
2022-08-26T18:45:38.342Z,24.63
2022-08-26T18:48:07.671Z,24.54
2022-08-26T18:50:40.320Z,24.56
2022-08-26T18:53:08.785Z,24.46
2022-08-26T18:55:36.673Z,24.44
2022-08-26T18:58:04.628Z,24.37
2022-08-26T19:00:32.852Z,24.38
2022-08-26T19:03:00.864Z,24.28
2022-08-26T19:05:30.146Z,24.25
2022-08-26T19:07:57.901Z,24.24
2022-08-26T19:10:25.742Z,24.22
2022-08-26T19:12:55.360Z,24.22
2022-08-26T19:15:26.782Z,24.10
2022-08-26T19:17:56.296Z,24.03
2022-08-26T19:20:24.627Z,23.87
2022-08-26T19:22:53.811Z,23.90
2022-08-26T19:25:21.654Z,23.88
2022-08-26T19:27:49.552Z,23.82
2022-08-26T19:30:17.470Z,23.78
2022-08-26T19:32:45.668Z,23.71
2022-08-26T19:35:13.516Z,23.66
2022-08-26T19:37:41.596Z,23.47
2022-08-26T19:40:11.779Z,23.52
2022-08-26T19:42:39.624Z,23.51
2022-08-26T19:45:24.285Z,23.45
2022-08-26T19:47:53.487Z,23.49
2022-08-26T19:50:22.287Z,23.48
2022-08-26T19:52:50.473Z,23.43
2022-08-26T19:55:20.856Z,23.34
2022-08-26T19:57:48.890Z,23.33
2022-08-26T20:00:20.661Z,23.35
2022-08-26T20:02:49.020Z,23.36
2022-08-26T20:05:18.280Z,23.37
2022-08-26T20:07:46.090Z,23.42
2022-08-26T20:10:16.736Z,23.34
2022-08-26T20:12:45.857Z,23.39
2022-08-26T20:15:14.436Z,23.40
2022-08-26T20:17:42.940Z,23.43
2022-08-26T20:20:33.754Z,23.37
2022-08-26T20:23:03.647Z,23.40
2022-08-26T20:25:32.493Z,23.42
2022-08-26T20:28:02.493Z,23.45
2022-08-26T20:30:30.397Z,23.44
2022-08-26T20:32:58.172Z,23.46
2022-08-26T20:35:28.090Z,23.49
2022-08-26T20:37:56.184Z,23.46
2022-08-26T20:40:24.399Z,23.47
2022-08-26T20:42:52.215Z,23.49
2022-08-26T20:45:21.404Z,23.50
2022-08-26T20:47:49.193Z,23.51
2022-08-26T20:50:17.341Z,23.52
2022-08-26T20:52:46.303Z,23.52
2022-08-26T20:55:14.365Z,23.55
2022-08-26T20:57:43.321Z,23.55
2022-08-26T21:00:14.130Z,23.51
2022-08-26T21:02:44.641Z,23.54
2022-08-26T21:05:12.536Z,23.53
2022-08-26T21:07:40.454Z,23.52
2022-08-26T21:10:09.320Z,23.55
2022-08-26T21:12:37.387Z,23.55
2022-08-26T21:15:06.694Z,23.56
2022-08-26T21:17:34.637Z,23.60
2022-08-26T21:20:04.668Z,23.60
2022-08-26T21:22:32.661Z,23.61
2022-08-26T21:25:00.545Z,23.63
2022-08-26T21:27:28.373Z,23.61
2022-08-26T21:29:56.750Z,23.59
2022-08-26T21:32:25.054Z,23.57
2022-08-26T21:34:55.572Z,23.55
2022-08-26T21:37:25.594Z,23.49
2022-08-26T21:39:54.555Z,23.44
2022-08-26T21:42:22.706Z,23.45
2022-08-26T21:44:52.920Z,23.44
2022-08-26T21:47:22.006Z,23.42
2022-08-26T21:49:50.334Z,23.36
2022-08-26T21:52:18.549Z,23.37
2022-08-26T21:54:49.546Z,23.35
2022-08-26T21:57:18.598Z,23.28
2022-08-26T21:59:46.509Z,23.31
2022-08-26T22:02:15.235Z,23.21
2022-08-26T22:04:48.113Z,23.20
2022-08-26T22:07:19.327Z,23.14
2022-08-26T22:09:49.654Z,23.13
2022-08-26T22:12:18.387Z,23.03
2022-08-26T22:14:47.349Z,23.06
2022-08-26T22:17:15.761Z,22.98
2022-08-26T22:19:46.325Z,22.98
2022-08-26T22:24:43.908Z,22.99
2022-08-26T22:27:14.270Z,22.96
2022-08-26T22:29:42.468Z,22.98
2022-08-26T22:32:10.390Z,22.98
2022-08-26T22:34:38.524Z,22.98
2022-08-26T22:37:06.539Z,22.97
2022-08-26T22:39:34.437Z,22.91
2022-08-26T22:42:04.222Z,22.84
2022-08-26T22:44:36.355Z,22.94
2022-08-26T22:47:04.535Z,22.94
2022-08-26T22:49:32.390Z,22.97
2022-08-26T22:52:00.243Z,22.96
2022-08-26T22:54:28.313Z,22.96
2022-08-26T22:56:56.472Z,22.91
2022-08-26T22:59:24.497Z,22.92
2022-08-26T23:01:53.957Z,22.84
2022-08-26T23:04:21.924Z,22.80
2022-08-26T23:06:49.903Z,22.80
2022-08-26T23:09:19.045Z,22.74
2022-08-26T23:11:47.739Z,22.61
2022-08-26T23:14:16.853Z,22.59
2022-08-26T23:16:44.963Z,22.58
2022-08-26T23:19:16.775Z,22.50
2022-08-26T23:21:45.020Z,22.36
2022-08-26T23:24:12.950Z,22.26
2022-08-26T23:26:42.463Z,22.19
2022-08-26T23:29:12.115Z,22.14
2022-08-26T23:31:41.463Z,22.14
2022-08-26T23:34:27.113Z,22.04
2022-08-26T23:36:59.173Z,22.04
2022-08-26T23:39:28.371Z,22.08
2022-08-26T23:41:56.866Z,22.04
2022-08-26T23:44:26.445Z,22.01
2022-08-26T23:46:54.573Z,22.03
2022-08-26T23:49:22.549Z,22.07
2022-08-26T23:52:08.184Z,22.09
2022-08-26T23:54:37.498Z,22.01
2022-08-26T23:57:05.673Z,21.95
2022-08-26T23:59:34.145Z,21.93
